Semaine O'tomnale - Régionale MD Scaer, foret de Coatloch (29) - H bis

Date : 31/10/2012
Distance : 2,000 km

Place Nom Licence Catégorie Club Temps min/km CN à J-60 Points Différence Nouveau CN
1 DROIN Solène 17925 D16 4201RA 0:20:51 10'25 5692 6492 +800 7630
2 GIRARD Lucille 19689 D16 3705CE 0:24:32 12'16 5502 5517 +15 5796
3 BODY Mathilde 10184 D16 7305RA 0:24:50 12'25 5805 5450 -355 6872
4 PETER-JAN Lucile 19276 D16 3705CE 0:25:22 12'41 5024 5336 +312 5157
5 BORNARD Julie 9402 D16 7305RA 0:25:22 12'41 5220 5336 +116 6136
6 DELENNE Camilla 13800 D16 1307PR 0:25:49 12'54 4640 5243 +603 5381
7 GUILLEMET Océane 22819 D16 3318AQ 0:26:30 13'15 5404 5108 -296 5723
8 LUTHRINGER Coline 10091 D16 8809LO 0:26:46 13'23 4894 5057 +163 4934
9 BASSET Fiona 23384 D16 6911RA 0:27:24 13'42 5135 4940 -195 5669
10 HABERKORN Chloé 10396 D16 2105BO 0:27:48 13'54 6560 4869 -1691 6560
11 BEAUVIR Maëlle 12709 D16 3502BR 0:29:15 14'37 5508 4627 -881 6233
12 FOL Loreline 16393 D16 3105MP 0:29:41 14'50 4599 4560 -39 4949
13 BERRARD Anna 19762 D16 2607RA 0:30:19 15'09 5004 4465 -539 5711
14 STARKE Paula 26505 D16 6913RA 0:30:34 15'17 4428 5327
15 ROULLEAUX Julie 11559 D16 9105IF 0:31:15 15'37 5089 4331 -758 5717
16 GUINOT Marion 15018 D16 2108BO 0:31:37 15'48 3738 4281 +543 4283
17 VALETTE Marion 10430 D16 6913RA 0:32:02 16'01 4501 4225 -276 5367
18 DELAPORTE Léa 20067 D16 5116CA 0:32:28 16'14 3285 4169 +884 4005
19 MOLINIER Caroline 6487 D16 9105IF 0:33:31 16'45 4246 4038 -208 4377
20 CRETE Juliette 18829 D16 6008PI 0:33:43 16'51 3183 4014 +831 4160
21 BESTEL Sandra 10758 D16 9105IF 0:33:55 16'57 4077 3991 -86 4481
22 RIVOLLIER Isaline 22451 D16 4201RA 0:34:01 17'00 4550 3979 -571 5051
23 ELIAS Pauline 16137 D16 1307PR 0:34:44 17'22 3981 3897 -84 4477
24 DUQUENNE Audrey 23885 D16 5907NO 0:34:54 17'27 4168 3878 -290 4624
25 VASILYEVA Véronika 25923 D16 5402LO 0:35:07 17'33 2848 3854 +1006 3897
26 MOUSSU Sarah 22301 D16 3318AQ 0:35:41 17'50 4205 3793 -412 4494
27 GUILLOT Jeanne 20364 D16 7004FC 0:39:41 19'50 3263 3411 +148 3269
28 SOUAN Cécile 26423 D16 7707IF 0:40:43 20'21 2262 3324 +1062 3026
29 LECUYER Manon 22549 D16 5907NO 0:41:38 20'49 2960 3251 +291 3783
30 FIGUIERE Lucile 10087 D16 7109BO 0:42:12 21'06 2908 3207 +299 3564
31 PICAZO Marie 16555 D16 8405PR 0:42:13 21'06 4857 3206 -1651 5210
32 BERCHE Léa 24420 D16 5907NO 0:42:24 21'12 3153 3192 +39 3229
33 DELVA Lou 26620 D16 7407RA 0:42:52 21'26 3157 2454
34 TEGNY Laurine 23659 D16 6205NO 0:43:50 21'55 3080 3088 +8 3068
35 DESCOURVIERES Perrine 25550 D16 7407RA 0:46:15 23'07 2150 2926 +776 2471
36 DUDOUT Malaurine 24516 D16 2704NM 0:46:39 23'19 2523 2901 +378 3913
37 DOUTRELANT Justine 26929 D16 5907NO 0:47:54 23'57 2826 2475
38 DASILVA Auriane 12758 D16 7707IF 0:48:12 24'06 2605 2808 +203 2893
39 ALLE Capucine 25922 D16 5402LO 0:49:38 24'49 1252 2727 +1475 2455
40 MOUGENOT LEA 25662 D16 6503MP 0:52:45 26'22 2566 1872
41 BULLIER Alisson 23427 D16 0207PI 0:53:20 26'40 2720 2538 -182 3458
42 JEANNERET Julie 20160 D16 7109BO 0:54:55 27'27 2256 2465 +209 2776
43 GARAT Frédérique 25929 D21 5909NO 0:55:35 27'47 2435 1998
44 MOREL Fanny 25556 D16 9502IF 1:07:01 33'30 1877 2020 +143 2181
45 GIRARD Florence 22478 D45 2508FC 1:07:26 33'43 1948 2007 +59 2221
46 FIGARD Cécile 26475 D16 7707IF 1:10:20 35'10 0 1924 1723
DUFOUR Marie 26623 D16 7407RA abandon None 0 2225
BUCAMP Noémie 25200 D16 6008PI pm None 2088 0 3095
MORIN Lucie 23393 D16 2208BR pm None 1637 0 1637